Time;durP1;ratioP1;P1;durP2;ratioP2;P2;SDS_P1;SDS_P2;PMS_P1;PMS_P2;Temp;Humidity;BMP_temperature;BMP_pressure;BME280_temperature;BME280_humidity;BME280_pressure;Samples;Min_cycle;Max_cycle;Signal;HPM_P1;HPM_P2
2022/01/18 00:00:50;;;;;;;33.20;6.63;;;8.30;77.60;;;;;;5035133;28;20949;-71
2022/01/18 00:03:16;;;;;;;32.78;7.43;;;8.30;78.60;;;;;;5051837;28;20485;-72
2022/01/18 00:05:45;;;;;;;38.10;7.67;;;8.30;79.90;;;;;;5052131;28;20451;-71
2022/01/18 00:08:11;;;;;;;42.77;7.03;;;8.30;80.60;;;;;;5051827;28;20385;-71
2022/01/18 00:10:36;;;;;;;30.13;6.05;;;8.20;80.10;;;;;;5051916;28;20394;-71
2022/01/18 00:15:40;;;;;;;45.60;7.90;;;8.20;81.20;;;;;;5052004;28;20421;-71
2022/01/18 00:18:10;;;;;;;34.28;6.80;;;8.20;81.10;;;;;;5033243;28;20396;-71
2022/01/18 00:21:14;;;;;;;36.65;6.95;;;8.30;80.40;;;;;;5053432;28;20456;-73
2022/01/18 00:23:29;;;;;;;29.05;7.55;;;8.20;80.50;;;;;;5055484;28;20868;-72
2022/01/18 00:25:57;;;;;;;39.20;7.73;;;8.20;81.50;;;;;;5060151;28;20381;-72
2022/01/18 00:28:25;;;;;;;37.67;8.23;;;8.20;81.90;;;;;;5041628;28;20395;-71
2022/01/18 00:39:11;;;;;;;39.25;7.00;;;8.20;80.50;;;;;;5010062;28;20786;-72
2022/01/18 00:41:38;;;;;;;33.58;7.13;;;8.20;81.00;;;;;;5071307;28;20408;-72
2022/01/18 00:44:05;;;;;;;37.83;6.80;;;8.20;80.30;;;;;;5031515;28;20741;-72
2022/01/18 00:46:30;;;;;;;31.98;6.50;;;8.20;79.70;;;;;;5049006;28;20417;-72
2022/01/18 00:49:00;;;;;;;29.33;6.20;;;8.20;79.50;;;;;;5064533;28;20419;-72
2022/01/18 00:51:26;;;;;;;30.63;7.40;;;8.20;79.30;;;;;;5063457;28;20440;-72
2022/01/18 00:53:52;;;;;;;32.67;7.07;;;8.20;79.70;;;;;;5050845;28;20413;-72
2022/01/18 00:56:30;;;;;;;29.85;8.60;;;8.20;79.10;;;;;;5051475;28;20881;-72
2022/01/18 00:58:56;;;;;;;36.60;9.30;;;8.30;78.90;;;;;;5033508;28;20468;-72
2022/01/18 01:01:25;;;;;;;37.30;10.30;;;8.30;79.60;;;;;;5051877;28;20402;-71
2022/01/18 01:03:53;;;;;;;36.42;10.70;;;8.30;78.80;;;;;;5056814;28;21093;-71
2022/01/18 01:06:19;;;;;;;46.87;10.83;;;8.40;77.20;;;;;;5039665;28;20406;-73
2022/01/18 01:08:45;;;;;;;45.37;11.73;;;8.30;79.00;;;;;;5057304;28;20385;-72
2022/01/18 01:11:11;;;;;;;37.28;10.40;;;8.40;77.70;;;;;;5033065;28;20412;-71
2022/01/18 01:13:39;;;;;;;40.53;10.82;;;8.40;76.70;;;;;;5034004;28;20401;-70
2022/01/18 01:33:02;;;;;;;32.72;9.60;;;8.30;75.10;;;;;;5031095;28;20485;-70
2022/01/18 01:43:30;;;;;;;39.90;10.90;;;8.30;73.30;;;;;;5050812;28;20765;-74
2022/01/18 01:45:58;;;;;;;28.42;10.35;;;8.30;73.60;;;;;;5050724;28;20396;-72
2022/01/18 01:48:25;;;;;;;36.30;9.10;;;8.30;75.20;;;;;;5050346;28;20388;-73
2022/01/18 01:51:01;;;;;;;33.95;9.90;;;8.30;74.50;;;;;;5032293;28;20383;-72
2022/01/18 01:53:27;;;;;;;32.67;10.40;;;8.40;72.00;;;;;;5050414;28;20443;-72
2022/01/18 01:55:53;;;;;;;27.83;9.15;;;8.40;71.80;;;;;;5049489;28;20962;-72
2022/01/18 01:58:21;;;;;;;33.58;9.63;;;8.50;70.40;;;;;;5050283;28;20400;-73
2022/01/18 02:00:49;;;;;;;31.05;7.80;;;8.40;72.20;;;;;;5050263;28;20379;-72
2022/01/18 02:03:15;;;;;;;33.00;8.40;;;8.50;68.70;;;;;;5050390;28;20393;-73
2022/01/18 02:05:41;;;;;;;35.73;8.50;;;8.50;69.00;;;;;;5050022;28;20690;-73
2022/01/18 02:08:07;;;;;;;29.13;8.48;;;8.50;68.60;;;;;;5046081;28;20398;-72
2022/01/18 02:10:37;;;;;;;33.28;8.93;;;8.40;69.90;;;;;;5050303;28;20898;-72
2022/01/18 02:13:05;;;;;;;32.67;8.68;;;8.40;71.90;;;;;;5050284;28;20502;-72
2022/01/18 02:15:31;;;;;;;40.30;9.50;;;8.30;71.70;;;;;;5050294;28;20371;-75
2022/01/18 02:23:29;;;;;;;24.23;5.50;;;8.50;67.50;;;;;;5051459;28;20442;-73
2022/01/18 02:25:56;;;;;;;21.35;6.20;;;8.50;67.00;;;;;;5050378;28;20389;-73
2022/01/18 02:28:23;;;;;;;28.23;7.80;;;8.40;68.20;;;;;;5050338;28;20934;-74
2022/01/18 02:30:49;;;;;;;31.52;6.85;;;8.40;67.90;;;;;;5052784;28;20384;-72
2022/01/18 02:33:16;;;;;;;26.80;5.75;;;8.40;68.00;;;;;;5054006;28;20416;-72
2022/01/18 02:35:43;;;;;;;19.73;6.22;;;8.40;67.30;;;;;;5054601;28;20378;-72
2022/01/18 02:38:09;;;;;;;22.90;6.05;;;8.30;68.70;;;;;;5054599;28;20393;-73
2022/01/18 02:40:35;;;;;;;29.43;5.43;;;8.30;70.00;;;;;;5056896;28;20392;-73
2022/01/18 02:43:46;;;;;;;25.52;5.30;;;8.30;70.60;;;;;;5054296;28;20447;-73
2022/01/18 02:45:52;;;;;;;26.92;5.82;;;8.30;71.60;;;;;;5053061;28;20871;-73
2022/01/18 02:48:18;;;;;;;32.83;5.40;;;8.30;71.90;;;;;;5035383;28;20397;-73
2022/01/18 02:50:44;;;;;;;28.27;5.70;;;8.30;71.70;;;;;;5053697;28;20431;-73
2022/01/18 02:53:10;;;;;;;34.03;6.28;;;8.20;72.30;;;;;;5053782;28;20906;-73
2022/01/18 02:55:36;;;;;;;30.90;5.90;;;8.20;73.40;;;;;;5053760;28;20388;-73
2022/01/18 02:58:07;;;;;;;27.40;6.05;;;8.10;74.10;;;;;;5054513;28;20389;-73
2022/01/18 03:00:45;;;;;;;27.08;6.03;;;8.00;78.00;;;;;;5033874;28;20731;-73
2022/01/18 03:03:16;;;;;;;33.20;6.10;;;7.90;79.70;;;;;;5040647;28;20745;-73
2022/01/18 03:05:43;;;;;;;33.25;6.20;;;7.90;81.00;;;;;;5053836;28;20434;-72
2022/01/18 03:08:10;;;;;;;36.40;6.30;;;8.10;78.70;;;;;;5052820;28;20385;-72
2022/01/18 03:10:37;;;;;;;35.37;6.13;;;8.30;75.80;;;;;;5053779;28;20393;-72
2022/01/18 03:13:03;;;;;;;32.42;6.70;;;8.30;74.20;;;;;;5054152;28;20395;-72
2022/01/18 03:15:29;;;;;;;26.50;5.82;;;8.30;74.70;;;;;;5054607;28;20468;-72
2022/01/18 03:17:55;;;;;;;26.00;6.00;;;8.20;75.80;;;;;;5055121;28;20871;-72
2022/01/18 03:20:22;;;;;;;33.22;6.72;;;8.10;76.60;;;;;;5055979;28;20868;-72
2022/01/18 03:22:49;;;;;;;33.83;6.00;;;8.10;77.50;;;;;;5037864;28;20913;-72
2022/01/18 03:26:16;;;;;;;23.85;6.20;;;8.00;78.20;;;;;;5036582;28;20796;-72
2022/01/18 03:28:10;;;;;;;37.25;6.50;;;8.00;79.60;;;;;;5040501;28;20405;-72
2022/01/18 03:30:41;;;;;;;35.70;7.00;;;8.00;80.70;;;;;;5062655;28;20385;-72
2022/01/18 03:33:14;;;;;;;30.15;5.95;;;8.00;80.70;;;;;;5058227;28;20409;-72
2022/01/18 03:35:40;;;;;;;37.05;6.30;;;8.00;80.20;;;;;;5058313;28;20426;-73
2022/01/18 03:38:06;;;;;;;34.65;6.38;;;8.00;79.20;;;;;;5062634;28;20424;-74
2022/01/18 03:40:32;;;;;;;30.50;6.93;;;7.90;80.30;;;;;;5076967;28;20454;-73
2022/01/18 03:42:59;;;;;;;31.00;6.50;;;7.90;79.90;;;;;;5078159;28;20398;-73
2022/01/18 03:45:43;;;;;;;29.65;5.80;;;7.90;79.80;;;;;;5076270;28;20487;-73
2022/01/18 03:48:15;;;;;;;33.42;5.90;;;7.90;79.80;;;;;;5054357;28;20425;-73
2022/01/18 03:50:41;;;;;;;30.83;6.13;;;7.90;78.90;;;;;;5052586;28;20498;-73
2022/01/18 03:53:09;;;;;;;31.10;5.35;;;8.00;78.30;;;;;;5052748;28;20409;-73
2022/01/18 03:55:34;;;;;;;22.75;4.78;;;8.00;76.80;;;;;;5052567;28;20377;-73
2022/01/18 03:58:00;;;;;;;24.50;5.83;;;8.00;77.20;;;;;;5052080;28;20786;-72
2022/01/18 04:00:27;;;;;;;30.60;5.87;;;8.00;78.10;;;;;;5052600;28;20432;-73
2022/01/18 04:02:54;;;;;;;29.40;6.03;;;8.00;77.60;;;;;;5052336;28;20408;-73
2022/01/18 04:05:20;;;;;;;34.65;5.75;;;7.90;77.70;;;;;;5052377;28;20884;-73
2022/01/18 04:07:46;;;;;;;30.13;5.60;;;8.00;77.30;;;;;;5033793;28;20435;-73
2022/01/18 04:10:13;;;;;;;27.38;5.60;;;8.00;75.40;;;;;;5052283;28;20476;-73
2022/01/18 04:12:39;;;;;;;22.02;5.28;;;8.00;75.40;;;;;;5063786;28;20492;-73
2022/01/18 04:15:13;;;;;;;32.05;5.90;;;8.00;76.50;;;;;;5058771;28;20424;-73
2022/01/18 04:28:33;;;;;;;30.85;5.95;;;7.90;77.00;;;;;;5051505;28;20506;-73
2022/01/18 04:31:00;;;;;;;26.92;5.38;;;7.90;77.10;;;;;;5052031;28;20404;-71
2022/01/18 04:33:26;;;;;;;26.83;4.72;;;7.90;77.50;;;;;;5051643;28;20939;-73
2022/01/18 04:35:51;;;;;;;26.10;4.60;;;7.80;77.90;;;;;;5051750;28;20480;-71
2022/01/18 04:38:17;;;;;;;28.67;5.00;;;7.80;78.10;;;;;;5051082;28;20870;-74
2022/01/18 04:40:45;;;;;;;27.43;6.07;;;7.80;79.00;;;;;;5033895;28;20451;-72
2022/01/18 04:48:47;;;;;;;19.02;4.53;;;7.70;81.00;;;;;;5058504;28;20396;-73
2022/01/18 04:51:12;;;;;;;32.23;5.17;;;7.60;81.40;;;;;;5051513;28;20427;-73
2022/01/18 04:53:48;;;;;;;31.47;5.90;;;7.60;82.70;;;;;;5033215;28;20803;-72
2022/01/18 04:56:17;;;;;;;25.50;5.30;;;7.60;84.50;;;;;;5050602;28;20400;-73
2022/01/18 04:58:43;;;;;;;30.13;6.55;;;7.50;86.10;;;;;;5050724;28;20423;-73
2022/01/18 05:01:12;;;;;;;36.83;7.20;;;7.40;88.10;;;;;;5052689;28;20386;-73
2022/01/18 05:03:38;;;;;;;34.40;6.35;;;7.40;88.60;;;;;;5053104;28;21053;-73
2022/01/18 05:06:11;;;;;;;30.52;7.85;;;7.40;89.40;;;;;;5052506;28;20421;-73
2022/01/18 05:08:38;;;;;;;37.22;7.47;;;7.40;90.10;;;;;;5053534;28;20854;-73
2022/01/18 05:11:05;;;;;;;34.78;7.05;;;7.40;90.80;;;;;;5053011;28;20394;-73
2022/01/18 05:21:31;;;;;;;33.33;7.85;;;7.50;91.00;;;;;;5032474;28;20394;-72
2022/01/18 05:23:57;;;;;;;30.75;7.97;;;7.60;90.40;;;;;;5031183;28;20398;-72
2022/01/18 05:26:24;;;;;;;35.63;8.00;;;7.60;89.00;;;;;;5046683;28;20394;-72
2022/01/18 05:28:50;;;;;;;32.30;8.32;;;7.70;88.50;;;;;;5032963;28;20478;-72
2022/01/18 05:31:16;;;;;;;35.10;9.05;;;7.70;86.70;;;;;;5036292;28;20440;-72
2022/01/18 05:33:42;;;;;;;36.65;7.15;;;7.80;86.20;;;;;;5062569;28;20381;-72
2022/01/18 05:36:09;;;;;;;38.57;8.50;;;7.80;85.80;;;;;;5059785;28;20387;-71
2022/01/18 05:38:36;;;;;;;35.38;8.90;;;7.80;86.10;;;;;;5057572;28;20766;-72
2022/01/18 05:41:07;;;;;;;36.78;8.52;;;7.80;84.30;;;;;;5076551;28;20467;-73
2022/01/18 05:43:33;;;;;;;39.75;9.23;;;7.80;83.60;;;;;;5058259;28;20744;-73
2022/01/18 05:45:59;;;;;;;31.00;9.00;;;7.80;83.80;;;;;;5043566;28;20409;-72
2022/01/18 05:48:25;;;;;;;42.80;9.20;;;7.70;84.80;;;;;;5063227;28;20393;-73
2022/01/18 05:50:52;;;;;;;39.03;10.60;;;7.70;85.60;;;;;;5068634;28;20766;-73
2022/01/18 05:53:18;;;;;;;44.70;10.20;;;7.60;86.00;;;;;;5063340;28;20397;-73
2022/01/18 05:55:43;;;;;;;35.67;9.60;;;7.60;86.70;;;;;;5050316;28;20397;-73
2022/01/18 05:58:09;;;;;;;32.33;9.70;;;7.60;87.40;;;;;;5050921;28;20447;-73
2022/01/18 06:00:37;;;;;;;44.70;10.83;;;7.60;87.40;;;;;;5050911;28;20461;-73
2022/01/18 06:03:11;;;;;;;48.90;11.55;;;7.60;88.00;;;;;;5049607;28;20482;-72
2022/01/18 06:08:21;;;;;;;38.70;11.73;;;7.70;90.30;;;;;;5058809;28;20478;-73
2022/01/18 06:10:46;;;;;;;37.50;11.47;;;7.70;90.90;;;;;;5054562;28;20381;-73
2022/01/18 06:13:14;;;;;;;43.90;11.70;;;7.80;88.00;;;;;;5055205;28;20894;-73
2022/01/18 06:15:39;;;;;;;41.35;11.98;;;7.80;86.10;;;;;;5054258;28;20401;-72
2022/01/18 06:18:05;;;;;;;29.43;10.47;;;7.90;85.90;;;;;;5054874;28;20465;-73
2022/01/18 06:20:31;;;;;;;37.65;11.23;;;7.90;84.30;;;;;;5054717;28;20393;-72
2022/01/18 06:22:56;;;;;;;48.13;11.82;;;7.90;84.10;;;;;;5055233;28;20394;-74
2022/01/18 06:25:22;;;;;;;37.08;10.95;;;7.90;82.80;;;;;;5054913;28;20393;-74
2022/01/18 06:27:50;;;;;;;45.70;11.57;;;7.80;82.60;;;;;;5055022;28;20385;-73
2022/01/18 06:30:16;;;;;;;46.53;13.15;;;7.80;83.40;;;;;;5054914;28;20381;-73
2022/01/18 06:32:45;;;;;;;40.50;11.77;;;7.70;84.80;;;;;;5041010;28;20488;-73
2022/01/18 06:35:12;;;;;;;38.10;11.32;;;7.80;84.30;;;;;;5042681;28;20905;-73
2022/01/18 06:37:39;;;;;;;37.90;11.48;;;7.70;85.40;;;;;;5057682;28;20381;-72
2022/01/18 06:40:06;;;;;;;32.22;10.93;;;7.80;85.50;;;;;;5079515;28;20383;-72
2022/01/18 06:42:32;;;;;;;32.65;10.50;;;7.80;85.30;;;;;;5086331;28;20457;-73
2022/01/18 06:44:58;;;;;;;32.15;11.23;;;7.70;84.80;;;;;;5070644;28;20386;-72
2022/01/18 06:47:24;;;;;;;33.92;11.70;;;7.70;84.80;;;;;;5054048;28;20408;-74
2022/01/18 06:49:49;;;;;;;32.13;10.80;;;7.70;85.20;;;;;;5054415;28;20492;-73
2022/01/18 06:52:15;;;;;;;41.10;11.43;;;7.70;85.60;;;;;;5054013;28;20521;-73
2022/01/18 06:54:41;;;;;;;37.20;11.00;;;7.60;86.10;;;;;;5035970;28;20736;-73
2022/01/18 06:57:06;;;;;;;39.60;11.80;;;7.60;86.50;;;;;;5055400;28;20986;-72
2022/01/18 06:59:34;;;;;;;38.08;11.48;;;7.60;87.20;;;;;;5036138;28;20753;-73
2022/01/18 07:02:00;;;;;;;38.40;12.32;;;7.70;93.60;;;;;;5055385;28;20439;-75
2022/01/18 07:04:26;;;;;;;38.47;12.75;;;7.70;92.60;;;;;;5053970;28;20398;-73
2022/01/18 07:06:51;;;;;;;37.17;11.40;;;7.70;89.00;;;;;;5052962;28;20738;-73
2022/01/18 07:09:22;;;;;;;39.25;13.00;;;7.60;88.50;;;;;;5053667;28;20386;-73
2022/01/18 07:11:49;;;;;;;48.65;14.50;;;7.50;89.40;;;;;;5036783;28;20401;-74
2022/01/18 07:14:15;;;;;;;36.85;13.52;;;7.40;93.20;;;;;;5053583;28;20413;-73
2022/01/18 07:16:40;;;;;;;36.97;12.80;;;7.30;96.80;;;;;;5052692;28;20417;-73
2022/01/18 07:19:06;;;;;;;35.78;11.70;;;7.40;99.20;;;;;;5054037;28;20390;-73
2022/01/18 07:21:32;;;;;;;34.78;11.43;;;7.60;88.00;;;;;;5053752;28;20417;-74
2022/01/18 07:24:04;;;;;;;39.55;13.32;;;7.80;85.30;;;;;;5053449;28;20389;-74
2022/01/18 07:26:30;;;;;;;40.42;12.77;;;7.60;85.00;;;;;;5053521;28;20409;-73
2022/01/18 07:28:56;;;;;;;34.85;11.45;;;7.80;85.70;;;;;;5035624;28;20404;-72
2022/01/18 07:31:22;;;;;;;40.13;12.40;;;7.90;81.30;;;;;;5054008;28;20385;-74
2022/01/18 07:33:48;;;;;;;37.65;11.85;;;7.90;79.20;;;;;;5053735;28;20714;-73
2022/01/18 07:36:14;;;;;;;37.78;11.77;;;7.90;79.90;;;;;;5052872;28;20428;-73
2022/01/18 07:38:40;;;;;;;41.43;11.10;;;7.80;81.20;;;;;;5055960;28;20395;-74
2022/01/18 07:41:05;;;;;;;32.60;11.60;;;7.80;81.20;;;;;;5076818;28;20441;-72
2022/01/18 07:43:31;;;;;;;35.70;11.52;;;7.70;82.60;;;;;;5088155;28;20391;-73
2022/01/18 07:45:56;;;;;;;32.47;13.10;;;7.60;83.70;;;;;;5072842;28;20397;-73
2022/01/18 07:48:23;;;;;;;36.00;12.68;;;7.60;85.00;;;;;;5054342;28;20754;-74
2022/01/18 07:50:51;;;;;;;34.50;12.20;;;7.60;85.20;;;;;;5035176;28;20389;-73
2022/01/18 07:53:18;;;;;;;42.70;11.98;;;7.70;85.70;;;;;;5053189;28;20489;-74
2022/01/18 07:55:43;;;;;;;33.20;11.60;;;7.70;85.20;;;;;;5052718;28;20389;-74
2022/01/18 07:58:09;;;;;;;34.60;12.07;;;7.70;84.90;;;;;;5052921;28;20382;-72
2022/01/18 08:00:34;;;;;;;28.27;10.75;;;7.70;85.10;;;;;;5053648;28;20505;-72
2022/01/18 08:03:00;;;;;;;34.05;11.13;;;7.70;84.80;;;;;;5035634;28;20384;-73
2022/01/18 08:05:26;;;;;;;33.53;11.50;;;7.70;84.10;;;;;;5052819;28;20755;-73
2022/01/18 08:07:52;;;;;;;35.47;11.50;;;7.70;83.30;;;;;;5052408;28;20878;-74
2022/01/18 08:10:18;;;;;;;34.85;10.90;;;7.80;82.90;;;;;;5035146;28;20398;-74
2022/01/18 08:12:44;;;;;;;30.30;11.10;;;7.80;82.40;;;;;;5052681;28;20488;-74
2022/01/18 08:15:16;;;;;;;31.80;11.15;;;7.80;83.00;;;;;;5052946;28;20384;-74
2022/01/18 08:17:45;;;;;;;32.88;10.30;;;7.80;82.70;;;;;;5052117;28;20875;-73
2022/01/18 08:20:13;;;;;;;33.83;11.57;;;7.80;82.00;;;;;;5053152;28;20468;-74
2022/01/18 08:22:43;;;;;;;36.78;11.90;;;7.80;84.50;;;;;;5051798;28;20401;-74
2022/01/18 08:25:10;;;;;;;36.53;11.88;;;7.90;82.10;;;;;;5051674;28;20539;-71
2022/01/18 08:27:37;;;;;;;32.47;11.20;;;7.90;82.40;;;;;;5052269;28;20766;-74
2022/01/18 08:30:05;;;;;;;31.80;10.77;;;7.90;81.20;;;;;;5062318;28;20467;-73
2022/01/18 08:32:31;;;;;;;31.35;11.23;;;7.80;80.90;;;;;;5068925;28;20417;-75
2022/01/18 08:34:56;;;;;;;35.10;11.50;;;7.80;82.50;;;;;;5057751;28;20461;-73
2022/01/18 08:37:22;;;;;;;37.40;11.30;;;7.80;82.40;;;;;;5052229;28;20420;-72
2022/01/18 08:39:47;;;;;;;36.40;12.85;;;7.80;83.20;;;;;;5052038;28;20381;-74
2022/01/18 08:42:13;;;;;;;38.03;12.88;;;7.90;81.60;;;;;;5051315;28;20758;-73
2022/01/18 08:44:43;;;;;;;32.10;12.00;;;7.90;81.50;;;;;;5050030;28;20973;-73
2022/01/18 08:47:16;;;;;;;38.60;12.63;;;8.00;81.90;;;;;;5052294;28;20864;-73
2022/01/18 08:49:42;;;;;;;36.00;13.00;;;8.20;86.50;;;;;;5054553;28;20405;-72
2022/01/18 08:52:08;;;;;;;34.17;10.40;;;8.30;81.80;;;;;;5053816;28;20437;-70
2022/01/18 08:54:34;;;;;;;35.60;11.77;;;8.30;74.40;;;;;;5034014;28;20452;-71
2022/01/18 08:57:03;;;;;;;46.65;11.75;;;8.30;76.40;;;;;;5050993;28;20731;-74
2022/01/18 08:59:30;;;;;;;33.22;12.10;;;8.30;75.90;;;;;;5040925;28;20403;-73
2022/01/18 09:01:58;;;;;;;37.15;10.50;;;8.20;77.40;;;;;;5051252;28;20441;-74
2022/01/18 09:04:24;;;;;;;29.30;11.50;;;8.00;79.80;;;;;;5050634;28;20415;-73
2022/01/18 09:06:52;;;;;;;31.45;10.68;;;8.10;81.40;;;;;;5051217;28;20537;-73
2022/01/18 09:09:18;;;;;;;34.53;11.10;;;8.20;78.80;;;;;;5051343;28;20398;-74
2022/01/18 09:11:45;;;;;;;35.30;11.18;;;8.20;79.20;;;;;;5051997;28;20417;-72
2022/01/18 09:14:12;;;;;;;34.30;11.68;;;8.30;79.10;;;;;;5051810;28;20479;-75
2022/01/18 09:16:38;;;;;;;37.30;11.50;;;8.40;76.60;;;;;;5052114;28;20870;-74
2022/01/18 09:19:04;;;;;;;27.70;11.38;;;8.50;75.50;;;;;;5051940;28;20408;-73
2022/01/18 09:21:33;;;;;;;35.23;11.70;;;8.60;75.80;;;;;;5051112;28;20401;-72
2022/01/18 09:24:00;;;;;;;34.97;11.70;;;8.70;74.50;;;;;;5051154;28;20996;-73
2022/01/18 09:26:26;;;;;;;28.67;11.35;;;8.80;74.20;;;;;;5050036;28;20403;-73
2022/01/18 09:28:51;;;;;;;38.03;12.00;;;8.90;70.10;;;;;;5051215;28;20404;-73
2022/01/18 09:31:19;;;;;;;31.98;12.50;;;8.90;70.80;;;;;;5051513;28;20397;-73
2022/01/18 09:33:44;;;;;;;34.92;12.05;;;9.00;72.30;;;;;;5056971;28;20385;-73
2022/01/18 09:36:10;;;;;;;32.05;10.82;;;9.00;71.30;;;;;;5059182;28;20389;-74
2022/01/18 09:38:36;;;;;;;41.08;12.30;;;9.10;69.50;;;;;;5058825;28;20392;-74
2022/01/18 09:41:09;;;;;;;39.13;13.20;;;9.20;68.40;;;;;;5057831;28;20379;-73
2022/01/18 09:43:35;;;;;;;31.92;12.30;;;9.20;68.60;;;;;;5058591;28;20381;-73
2022/01/18 09:46:01;;;;;;;32.35;11.50;;;9.30;66.80;;;;;;5057555;28;20389;-74
2022/01/18 09:48:26;;;;;;;40.15;12.60;;;9.40;66.40;;;;;;5051938;28;20400;-74
2022/01/18 09:50:52;;;;;;;37.30;11.83;;;9.40;66.20;;;;;;5051007;28;20397;-75
2022/01/18 09:53:18;;;;;;;33.13;11.90;;;9.50;64.50;;;;;;5034128;28;20412;-74
2022/01/18 09:55:44;;;;;;;46.00;12.68;;;9.50;64.70;;;;;;5053083;28;20432;-75
2022/01/18 09:58:11;;;;;;;38.30;12.20;;;9.40;66.00;;;;;;5034635;28;20447;-73
2022/01/18 10:00:40;;;;;;;29.80;12.23;;;9.40;65.00;;;;;;5051443;28;20394;-75
2022/01/18 10:03:09;;;;;;;50.25;13.52;;;9.60;64.40;;;;;;5051181;28;20761;-73
2022/01/18 10:05:35;;;;;;;46.38;12.40;;;9.70;64.60;;;;;;5052672;28;20466;-76
2022/01/18 10:08:14;;;;;;;39.92;12.75;;;9.80;60.10;;;;;;5071249;28;20399;-74
2022/01/18 10:10:53;;;;;;;35.50;14.20;;;9.80;59.50;;;;;;5057437;28;20489;-75
2022/01/18 10:13:27;;;;;;;43.88;15.68;;;9.60;59.70;;;;;;5052086;28;20920;-74
2022/01/18 10:16:12;;;;;;;35.58;15.20;;;9.60;61.60;;;;;;5061241;28;20404;-73
2022/01/18 10:18:45;;;;;;;45.70;14.82;;;9.60;61.00;;;;;;5026398;28;20396;-73
2022/01/18 10:21:14;;;;;;;43.23;13.50;;;9.70;61.40;;;;;;5052338;28;21004;-73
2022/01/18 10:23:48;;;;;;;54.25;19.98;;;9.60;61.80;;;;;;5051622;28;20500;-74
2022/01/18 10:26:16;;;;;;;43.97;16.08;;;9.60;62.40;;;;;;5050769;28;20397;-74
2022/01/18 10:28:42;;;;;;;47.65;19.52;;;9.70;63.40;;;;;;5050593;28;20385;-74
2022/01/18 10:31:33;;;;;;;55.47;20.38;;;9.70;65.60;;;;;;5046153;28;20393;-75
2022/01/18 10:34:27;;;;;;;53.83;22.33;;;9.90;60.90;;;;;;5044254;28;20385;-75
2022/01/18 10:36:59;;;;;;;57.70;23.13;;;9.90;62.30;;;;;;5043421;28;20396;-72
2022/01/18 10:39:27;;;;;;;58.47;22.15;;;10.20;57.50;;;;;;5059802;28;20399;-74
2022/01/18 10:41:53;;;;;;;62.95;22.40;;;10.20;56.50;;;;;;5049117;28;20484;-73
2022/01/18 10:44:19;;;;;;;49.90;20.83;;;10.20;56.00;;;;;;5050823;28;20751;-72
2022/01/18 10:46:54;;;;;;;47.92;20.88;;;10.30;56.50;;;;;;5050645;28;20389;-72
2022/01/18 10:49:39;;;;;;;56.45;21.63;;;10.60;51.30;;;;;;5050168;28;20393;-73
2022/01/18 10:52:11;;;;;;;57.67;24.60;;;10.60;50.60;;;;;;5053720;28;20478;-72
2022/01/18 10:54:39;;;;;;;55.65;23.25;;;10.40;51.90;;;;;;5055431;28;20393;-75
2022/01/18 10:57:06;;;;;;;59.25;27.45;;;10.50;54.10;;;;;;5054966;28;20448;-71
2022/01/18 10:59:34;;;;;;;67.50;27.65;;;10.40;53.10;;;;;;5054273;28;20397;-72
2022/01/18 11:02:13;;;;;;;68.35;26.00;;;10.30;54.60;;;;;;5054017;28;20462;-72
2022/01/18 11:04:53;;;;;;;55.63;28.45;;;10.20;56.20;;;;;;5054112;28;20441;-73
2022/01/18 11:07:22;;;;;;;70.63;29.45;;;10.20;57.80;;;;;;5055617;28;20382;-73
2022/01/18 11:09:49;;;;;;;68.35;29.33;;;10.60;53.10;;;;;;5054662;28;20877;-72
2022/01/18 11:12:15;;;;;;;77.38;31.23;;;10.70;51.90;;;;;;5037913;28;20444;-71
2022/01/18 11:14:47;;;;;;;73.55;33.10;;;10.80;50.80;;;;;;5053384;28;20390;-71
2022/01/18 11:17:21;;;;;;;65.40;30.65;;;10.90;48.60;;;;;;5053904;28;20471;-72
2022/01/18 11:19:49;;;;;;;84.00;37.95;;;11.00;47.40;;;;;;5054991;28;20393;-72
2022/01/18 11:22:16;;;;;;;74.80;33.70;;;10.80;47.80;;;;;;5063805;28;20392;-72
2022/01/18 11:24:43;;;;;;;73.22;34.38;;;10.70;49.10;;;;;;5057958;28;20399;-73
2022/01/18 11:27:13;;;;;;;104.68;40.22;;;10.50;50.70;;;;;;5055880;28;20901;-73
2022/01/18 11:29:43;;;;;;;90.22;40.25;;;10.50;51.50;;;;;;5054944;28;20397;-73
2022/01/18 11:32:09;;;;;;;109.03;43.60;;;10.60;48.80;;;;;;5055201;28;20459;-72
2022/01/18 11:34:56;;;;;;;94.30;43.53;;;10.70;47.70;;;;;;5055024;28;20392;-73
2022/01/18 11:37:39;;;;;;;110.10;45.92;;;10.70;46.80;;;;;;5039254;28;20894;-72
2022/01/18 11:40:14;;;;;;;107.03;44.35;;;10.60;48.40;;;;;;5059780;28;20397;-72
2022/01/18 11:43:02;;;;;;;106.65;46.35;;;10.80;47.10;;;;;;5054342;28;20378;-72
2022/01/18 11:45:29;;;;;;;118.05;48.53;;;10.70;46.60;;;;;;5053846;28;20405;-72
2022/01/18 11:48:11;;;;;;;114.07;45.53;;;10.60;47.70;;;;;;5053927;28;20386;-72
2022/01/18 11:50:44;;;;;;;111.18;42.47;;;10.70;48.50;;;;;;5053918;28;20397;-73
2022/01/18 11:53:25;;;;;;;104.20;44.17;;;10.50;47.30;;;;;;5035601;28;20416;-73
2022/01/18 11:55:58;;;;;;;104.15;41.63;;;10.40;49.50;;;;;;5060249;28;20420;-71
2022/01/18 11:58:25;;;;;;;102.15;41.78;;;10.40;49.20;;;;;;5067664;28;20417;-72
2022/01/18 12:01:00;;;;;;;94.00;40.37;;;10.30;48.20;;;;;;5062493;28;20384;-72
2022/01/18 12:03:28;;;;;;;100.43;42.58;;;10.30;49.50;;;;;;5053547;28;20394;-75
2022/01/18 12:05:57;;;;;;;92.40;40.53;;;10.40;49.50;;;;;;5055855;28;20491;-76
2022/01/18 12:08:43;;;;;;;89.47;40.63;;;10.30;49.60;;;;;;5054849;28;20400;-75
2022/01/18 12:11:31;;;;;;;100.32;41.78;;;10.20;50.30;;;;;;5053538;28;20394;-74
2022/01/18 12:13:58;;;;;;;106.35;41.15;;;10.10;51.40;;;;;;5052523;28;20401;-75
2022/01/18 12:16:29;;;;;;;112.43;43.70;;;9.90;52.00;;;;;;5054455;28;20397;-74
2022/01/18 12:18:58;;;;;;;95.72;42.08;;;9.90;53.00;;;;;;5053438;28;20477;-74
2022/01/18 12:21:27;;;;;;;96.03;41.97;;;9.90;53.00;;;;;;5052663;28;20484;-76
2022/01/18 12:23:54;;;;;;;101.40;42.60;;;9.80;53.10;;;;;;5052998;28;20370;-74
2022/01/18 12:26:34;;;;;;;90.10;39.92;;;9.70;53.20;;;;;;5053645;28;20404;-75
2022/01/18 12:34:28;;;;;;;84.47;38.15;;;9.90;54.40;;;;;;5047980;28;20449;-74
2022/01/18 12:36:56;;;;;;;83.05;37.10;;;10.00;53.50;;;;;;5054747;28;20397;-75
2022/01/18 12:39:22;;;;;;;87.40;38.67;;;10.20;50.80;;;;;;5043661;28;20484;-75
2022/01/18 12:41:55;;;;;;;79.97;35.35;;;10.30;48.90;;;;;;5039647;28;20424;-75
2022/01/18 12:44:21;;;;;;;79.97;34.85;;;10.20;48.40;;;;;;5058250;28;20406;-75
2022/01/18 12:46:58;;;;;;;80.13;35.10;;;10.20;49.70;;;;;;5041574;28;20806;-74
2022/01/18 12:49:25;;;;;;;90.18;36.00;;;10.10;50.60;;;;;;5054717;28;20443;-75
2022/01/18 12:51:55;;;;;;;84.07;33.38;;;10.20;51.50;;;;;;5051878;28;20401;-75
2022/01/18 12:54:33;;;;;;;77.57;33.80;;;10.30;49.60;;;;;;5034512;28;20723;-73
2022/01/18 12:57:23;;;;;;;70.85;32.50;;;10.40;48.90;;;;;;5052011;28;20390;-73
2022/01/18 13:00:09;;;;;;;80.47;32.30;;;10.40;47.60;;;;;;5051958;28;20723;-74
2022/01/18 13:02:35;;;;;;;80.97;33.07;;;10.40;46.60;;;;;;5043525;28;20484;-73
2022/01/18 13:05:02;;;;;;;65.30;28.77;;;10.30;47.90;;;;;;5032464;28;20485;-76
2022/01/18 13:07:28;;;;;;;65.07;29.52;;;10.50;45.30;;;;;;5050672;28;20424;-74
2022/01/18 13:10:02;;;;;;;62.13;27.53;;;10.60;45.60;;;;;;5051562;28;20378;-75
2022/01/18 13:12:39;;;;;;;65.32;27.83;;;10.60;45.00;;;;;;5031943;28;20788;-74
2022/01/18 13:15:07;;;;;;;68.75;28.10;;;10.60;45.30;;;;;;5034514;28;20782;-74
2022/01/18 13:23:50;;;;;;;57.07;23.33;;;10.30;46.10;;;;;;5051636;28;20477;-76
2022/01/18 13:26:26;;;;;;;60.38;22.27;;;10.10;46.60;;;;;;5051209;28;20401;-73
2022/01/18 13:28:51;;;;;;;55.60;22.10;;;10.00;47.00;;;;;;5051456;28;20393;-77
2022/01/18 13:31:21;;;;;;;59.07;22.90;;;10.00;46.00;;;;;;5033625;28;20944;-74
2022/01/18 13:33:56;;;;;;;48.55;20.20;;;10.10;46.80;;;;;;5050743;28;20405;-76
2022/01/18 13:36:24;;;;;;;49.53;18.25;;;10.20;46.20;;;;;;5050997;28;20445;-75
2022/01/18 13:38:51;;;;;;;46.63;19.73;;;10.40;44.30;;;;;;5054611;28;20419;-74
2022/01/18 13:41:17;;;;;;;48.22;18.48;;;10.50;43.90;;;;;;5053628;28;20550;-74
2022/01/18 13:43:44;;;;;;;45.08;20.38;;;10.40;43.90;;;;;;5051576;28;20397;-75
2022/01/18 13:46:10;;;;;;;48.67;19.00;;;10.40;43.60;;;;;;5051924;28;20451;-73
2022/01/18 13:48:37;;;;;;;46.58;19.13;;;10.30;43.90;;;;;;5051865;28;20385;-73
2022/01/18 13:51:19;;;;;;;50.13;17.80;;;10.30;44.10;;;;;;5052503;28;20447;-76
2022/01/18 13:53:44;;;;;;;47.42;19.13;;;10.40;43.30;;;;;;5051811;28;20397;-73
2022/01/18 13:56:20;;;;;;;43.03;18.20;;;10.40;43.20;;;;;;5033628;28;20394;-73
2022/01/18 13:58:50;;;;;;;46.88;20.90;;;10.40;44.90;;;;;;5035527;28;20414;-72
2022/01/18 14:01:24;;;;;;;46.30;19.63;;;10.50;43.70;;;;;;5053196;28;20495;-70
2022/01/18 14:03:52;;;;;;;49.13;19.83;;;10.50;44.00;;;;;;5053822;28;20755;-72
2022/01/18 14:06:19;;;;;;;44.25;19.98;;;10.50;43.50;;;;;;5057954;28;20390;-73